sensor_id;sensor_type;location;lat;lon;timestamp;temperature;humidity
2639;DHT22;1329;51.384;7.122;2022-11-14T00:00:44;6.80;14.70
2639;DHT22;1329;51.384;7.122;2022-11-14T00:03:11;6.80;15.50
2639;DHT22;1329;51.384;7.122;2022-11-14T00:05:39;6.80;15.00
2639;DHT22;1329;51.384;7.122;2022-11-14T00:08:13;6.70;15.20
2639;DHT22;1329;51.384;7.122;2022-11-14T00:10:41;6.70;16.90
2639;DHT22;1329;51.384;7.122;2022-11-14T00:13:11;6.70;15.20
2639;DHT22;1329;51.384;7.122;2022-11-14T00:15:37;6.70;15.10
2639;DHT22;1329;51.384;7.122;2022-11-14T00:18:06;6.70;15.10
2639;DHT22;1329;51.384;7.122;2022-11-14T00:20:33;6.60;15.30
2639;DHT22;1329;51.384;7.122;2022-11-14T00:23:01;6.60;14.80
2639;DHT22;1329;51.384;7.122;2022-11-14T00:25:28;6.60;14.90
2639;DHT22;1329;51.384;7.122;2022-11-14T00:27:56;6.60;15.20
2639;DHT22;1329;51.384;7.122;2022-11-14T00:30:24;6.60;15.60
2639;DHT22;1329;51.384;7.122;2022-11-14T00:32:51;6.50;15.40
2639;DHT22;1329;51.384;7.122;2022-11-14T00:35:19;6.60;15.60
2639;DHT22;1329;51.384;7.122;2022-11-14T00:37:46;6.50;15.90
2639;DHT22;1329;51.384;7.122;2022-11-14T00:40:13;6.50;15.20
2639;DHT22;1329;51.384;7.122;2022-11-14T00:42:40;6.50;15.10
2639;DHT22;1329;51.384;7.122;2022-11-14T00:45:07;6.50;15.00
2639;DHT22;1329;51.384;7.122;2022-11-14T00:47:35;6.40;14.90
2639;DHT22;1329;51.384;7.122;2022-11-14T00:50:02;6.40;14.90
2639;DHT22;1329;51.384;7.122;2022-11-14T00:52:30;6.40;14.80
2639;DHT22;1329;51.384;7.122;2022-11-14T00:54:57;6.40;15.30
2639;DHT22;1329;51.384;7.122;2022-11-14T00:57:24;6.40;14.70
2639;DHT22;1329;51.384;7.122;2022-11-14T00:59:50;6.30;14.60
2639;DHT22;1329;51.384;7.122;2022-11-14T01:02:19;6.30;14.60
2639;DHT22;1329;51.384;7.122;2022-11-14T01:04:46;6.30;14.70
2639;DHT22;1329;51.384;7.122;2022-11-14T01:07:13;6.30;14.70
2639;DHT22;1329;51.384;7.122;2022-11-14T01:09:42;6.20;14.70
2639;DHT22;1329;51.384;7.122;2022-11-14T01:12:09;6.20;15.30
2639;DHT22;1329;51.384;7.122;2022-11-14T01:14:36;6.20;14.70
2639;DHT22;1329;51.384;7.122;2022-11-14T01:17:05;6.20;14.70
2639;DHT22;1329;51.384;7.122;2022-11-14T01:19:32;6.20;14.80
2639;DHT22;1329;51.384;7.122;2022-11-14T01:21:58;6.20;14.80
2639;DHT22;1329;51.384;7.122;2022-11-14T01:24:25;6.10;14.70
2639;DHT22;1329;51.384;7.122;2022-11-14T01:26:55;6.10;14.90
2639;DHT22;1329;51.384;7.122;2022-11-14T01:29:22;6.10;15.60
2639;DHT22;1329;51.384;7.122;2022-11-14T01:31:49;6.10;15.10
2639;DHT22;1329;51.384;7.122;2022-11-14T01:34:15;6.10;15.00
2639;DHT22;1329;51.384;7.122;2022-11-14T01:36:42;6.10;14.80
2639;DHT22;1329;51.384;7.122;2022-11-14T01:39:09;6.10;14.60
2639;DHT22;1329;51.384;7.122;2022-11-14T01:41:36;6.00;14.60
2639;DHT22;1329;51.384;7.122;2022-11-14T01:44:11;6.00;14.70
2639;DHT22;1329;51.384;7.122;2022-11-14T01:46:41;6.00;16.00
2639;DHT22;1329;51.384;7.122;2022-11-14T01:49:16;6.00;15.80
2639;DHT22;1329;51.384;7.122;2022-11-14T01:51:49;6.00;16.30
2639;DHT22;1329;51.384;7.122;2022-11-14T01:54:21;6.00;15.70
2639;DHT22;1329;51.384;7.122;2022-11-14T01:56:53;6.00;15.80
2639;DHT22;1329;51.384;7.122;2022-11-14T01:59:28;5.90;15.00
2639;DHT22;1329;51.384;7.122;2022-11-14T02:01:58;5.90;15.20
2639;DHT22;1329;51.384;7.122;2022-11-14T02:04:33;5.90;14.60
2639;DHT22;1329;51.384;7.122;2022-11-14T02:07:03;5.90;14.70
2639;DHT22;1329;51.384;7.122;2022-11-14T02:09:34;5.80;14.60
2639;DHT22;1329;51.384;7.122;2022-11-14T02:12:06;5.80;14.30
2639;DHT22;1329;51.384;7.122;2022-11-14T02:14:36;5.80;14.60
2639;DHT22;1329;51.384;7.122;2022-11-14T02:17:04;5.70;14.90
2639;DHT22;1329;51.384;7.122;2022-11-14T02:19:42;5.80;14.70
2639;DHT22;1329;51.384;7.122;2022-11-14T02:22:11;5.70;16.30
2639;DHT22;1329;51.384;7.122;2022-11-14T02:24:38;5.70;15.00
2639;DHT22;1329;51.384;7.122;2022-11-14T02:27:06;5.70;14.70
2639;DHT22;1329;51.384;7.122;2022-11-14T02:29:34;5.70;14.80
2639;DHT22;1329;51.384;7.122;2022-11-14T02:32:01;5.70;14.90
2639;DHT22;1329;51.384;7.122;2022-11-14T02:34:29;5.70;14.80
2639;DHT22;1329;51.384;7.122;2022-11-14T02:36:56;5.60;14.80
2639;DHT22;1329;51.384;7.122;2022-11-14T02:39:24;5.60;15.00
2639;DHT22;1329;51.384;7.122;2022-11-14T02:41:51;5.60;15.20
2639;DHT22;1329;51.384;7.122;2022-11-14T02:44:19;5.60;14.90
2639;DHT22;1329;51.384;7.122;2022-11-14T02:46:45;5.60;15.30
2639;DHT22;1329;51.384;7.122;2022-11-14T02:49:12;5.50;15.50
2639;DHT22;1329;51.384;7.122;2022-11-14T02:51:39;5.60;15.30
2639;DHT22;1329;51.384;7.122;2022-11-14T02:54:06;5.60;15.30
2639;DHT22;1329;51.384;7.122;2022-11-14T02:56:35;5.50;15.20
2639;DHT22;1329;51.384;7.122;2022-11-14T02:59:01;5.60;15.70
2639;DHT22;1329;51.384;7.122;2022-11-14T03:01:28;5.50;15.30
2639;DHT22;1329;51.384;7.122;2022-11-14T03:03:55;5.50;15.30
2639;DHT22;1329;51.384;7.122;2022-11-14T03:06:22;5.50;15.10
2639;DHT22;1329;51.384;7.122;2022-11-14T03:08:49;5.50;14.90
2639;DHT22;1329;51.384;7.122;2022-11-14T03:11:15;5.50;14.70
2639;DHT22;1329;51.384;7.122;2022-11-14T03:13:45;5.50;14.80
2639;DHT22;1329;51.384;7.122;2022-11-14T03:16:13;5.40;15.30
2639;DHT22;1329;51.384;7.122;2022-11-14T03:18:40;5.40;15.50
2639;DHT22;1329;51.384;7.122;2022-11-14T03:21:09;5.40;15.10
2639;DHT22;1329;51.384;7.122;2022-11-14T03:23:37;5.40;15.10
2639;DHT22;1329;51.384;7.122;2022-11-14T03:26:06;5.40;14.70
2639;DHT22;1329;51.384;7.122;2022-11-14T03:28:34;5.40;15.00
2639;DHT22;1329;51.384;7.122;2022-11-14T03:31:02;5.30;15.20
2639;DHT22;1329;51.384;7.122;2022-11-14T03:33:30;5.30;15.40
2639;DHT22;1329;51.384;7.122;2022-11-14T03:35:57;5.30;14.80
2639;DHT22;1329;51.384;7.122;2022-11-14T03:38:23;5.30;14.70
2639;DHT22;1329;51.384;7.122;2022-11-14T03:40:51;5.30;14.30
2639;DHT22;1329;51.384;7.122;2022-11-14T03:43:20;5.20;14.20
2639;DHT22;1329;51.384;7.122;2022-11-14T03:45:48;5.20;14.70
2639;DHT22;1329;51.384;7.122;2022-11-14T03:48:16;5.20;14.80
2639;DHT22;1329;51.384;7.122;2022-11-14T03:50:44;5.10;15.50
2639;DHT22;1329;51.384;7.122;2022-11-14T03:53:11;5.10;15.30
2639;DHT22;1329;51.384;7.122;2022-11-14T03:55:37;5.10;15.60
2639;DHT22;1329;51.384;7.122;2022-11-14T03:58:04;5.10;15.90
2639;DHT22;1329;51.384;7.122;2022-11-14T04:00:31;5.10;16.20
2639;DHT22;1329;51.384;7.122;2022-11-14T04:02:58;5.10;16.30
2639;DHT22;1329;51.384;7.122;2022-11-14T04:05:26;5.10;16.70
2639;DHT22;1329;51.384;7.122;2022-11-14T04:07:53;5.10;17.50
2639;DHT22;1329;51.384;7.122;2022-11-14T04:10:20;5.10;17.20
2639;DHT22;1329;51.384;7.122;2022-11-14T04:12:47;5.10;17.50
2639;DHT22;1329;51.384;7.122;2022-11-14T04:15:15;5.10;17.70
2639;DHT22;1329;51.384;7.122;2022-11-14T04:17:42;5.10;18.10
2639;DHT22;1329;51.384;7.122;2022-11-14T04:20:10;5.10;18.00
2639;DHT22;1329;51.384;7.122;2022-11-14T04:22:39;5.20;18.60
2639;DHT22;1329;51.384;7.122;2022-11-14T04:25:07;5.10;19.80
2639;DHT22;1329;51.384;7.122;2022-11-14T04:27:35;5.20;21.30
2639;DHT22;1329;51.384;7.122;2022-11-14T04:30:02;5.20;22.50
2639;DHT22;1329;51.384;7.122;2022-11-14T04:32:29;5.20;22.40
2639;DHT22;1329;51.384;7.122;2022-11-14T04:34:57;5.30;22.30
2639;DHT22;1329;51.384;7.122;2022-11-14T04:37:24;5.30;22.30
2639;DHT22;1329;51.384;7.122;2022-11-14T04:39:52;5.30;22.40
2639;DHT22;1329;51.384;7.122;2022-11-14T04:42:23;5.30;22.70
2639;DHT22;1329;51.384;7.122;2022-11-14T04:44:50;5.40;22.00
2639;DHT22;1329;51.384;7.122;2022-11-14T04:47:17;5.40;22.50
2639;DHT22;1329;51.384;7.122;2022-11-14T04:49:44;5.40;23.40
2639;DHT22;1329;51.384;7.122;2022-11-14T04:52:10;5.40;24.50
2639;DHT22;1329;51.384;7.122;2022-11-14T04:54:37;5.40;26.00
2639;DHT22;1329;51.384;7.122;2022-11-14T04:57:05;5.50;27.80
2639;DHT22;1329;51.384;7.122;2022-11-14T04:59:32;5.50;30.00
2639;DHT22;1329;51.384;7.122;2022-11-14T05:01:59;5.60;29.60
2639;DHT22;1329;51.384;7.122;2022-11-14T05:04:26;5.60;29.50
2639;DHT22;1329;51.384;7.122;2022-11-14T05:06:53;5.60;29.10
2639;DHT22;1329;51.384;7.122;2022-11-14T05:09:19;5.70;29.10
2639;DHT22;1329;51.384;7.122;2022-11-14T05:11:46;5.70;29.00
2639;DHT22;1329;51.384;7.122;2022-11-14T05:14:14;5.70;29.10
2639;DHT22;1329;51.384;7.122;2022-11-14T05:16:41;5.70;30.10
2639;DHT22;1329;51.384;7.122;2022-11-14T05:19:08;5.70;29.60
2639;DHT22;1329;51.384;7.122;2022-11-14T05:21:35;5.70;30.50
2639;DHT22;1329;51.384;7.122;2022-11-14T05:24:02;5.80;31.70
2639;DHT22;1329;51.384;7.122;2022-11-14T05:26:29;5.80;32.90
2639;DHT22;1329;51.384;7.122;2022-11-14T05:28:55;5.80;34.20
2639;DHT22;1329;51.384;7.122;2022-11-14T05:31:24;5.90;35.00
2639;DHT22;1329;51.384;7.122;2022-11-14T05:33:50;5.90;37.40
2639;DHT22;1329;51.384;7.122;2022-11-14T05:36:17;6.00;35.90
2639;DHT22;1329;51.384;7.122;2022-11-14T05:38:44;6.00;35.40
2639;DHT22;1329;51.384;7.122;2022-11-14T05:41:12;6.00;35.10
2639;DHT22;1329;51.384;7.122;2022-11-14T05:43:40;6.00;35.80
2639;DHT22;1329;51.384;7.122;2022-11-14T05:46:09;6.00;34.60
2639;DHT22;1329;51.384;7.122;2022-11-14T05:48:40;6.00;35.90
2639;DHT22;1329;51.384;7.122;2022-11-14T05:51:09;6.00;36.40
2639;DHT22;1329;51.384;7.122;2022-11-14T05:53:38;6.10;36.10
2639;DHT22;1329;51.384;7.122;2022-11-14T05:56:10;6.10;34.40
2639;DHT22;1329;51.384;7.122;2022-11-14T05:58:38;6.10;36.70
2639;DHT22;1329;51.384;7.122;2022-11-14T06:01:07;6.10;33.60
2639;DHT22;1329;51.384;7.122;2022-11-14T06:03:39;6.10;34.10
2639;DHT22;1329;51.384;7.122;2022-11-14T06:06:08;6.10;34.30
2639;DHT22;1329;51.384;7.122;2022-11-14T06:08:38;6.10;33.90
2639;DHT22;1329;51.384;7.122;2022-11-14T06:11:07;6.00;33.50
2639;DHT22;1329;51.384;7.122;2022-11-14T06:13:35;6.00;35.20
2639;DHT22;1329;51.384;7.122;2022-11-14T06:16:05;6.00;34.00
2639;DHT22;1329;51.384;7.122;2022-11-14T06:18:33;6.00;34.80
2639;DHT22;1329;51.384;7.122;2022-11-14T06:21:04;6.00;34.50
2639;DHT22;1329;51.384;7.122;2022-11-14T06:23:33;6.00;36.00
2639;DHT22;1329;51.384;7.122;2022-11-14T06:26:00;6.00;34.30
2639;DHT22;1329;51.384;7.122;2022-11-14T06:28:29;6.00;34.80
2639;DHT22;1329;51.384;7.122;2022-11-14T06:30:57;6.00;34.10
2639;DHT22;1329;51.384;7.122;2022-11-14T06:33:24;6.00;34.70
2639;DHT22;1329;51.384;7.122;2022-11-14T06:35:56;6.00;34.10
2639;DHT22;1329;51.384;7.122;2022-11-14T06:38:26;6.00;37.20
2639;DHT22;1329;51.384;7.122;2022-11-14T06:41:00;6.00;36.00
2639;DHT22;1329;51.384;7.122;2022-11-14T06:43:28;6.00;38.00
2639;DHT22;1329;51.384;7.122;2022-11-14T06:45:57;6.00;34.30
2639;DHT22;1329;51.384;7.122;2022-11-14T06:48:24;6.00;34.30
2639;DHT22;1329;51.384;7.122;2022-11-14T06:50:51;6.00;34.50
2639;DHT22;1329;51.384;7.122;2022-11-14T06:53:18;6.00;35.10
2639;DHT22;1329;51.384;7.122;2022-11-14T06:55:53;6.00;35.30
2639;DHT22;1329;51.384;7.122;2022-11-14T06:58:21;6.00;38.90
2639;DHT22;1329;51.384;7.122;2022-11-14T07:00:48;6.00;35.30
2639;DHT22;1329;51.384;7.122;2022-11-14T07:03:15;5.90;35.20
2639;DHT22;1329;51.384;7.122;2022-11-14T07:05:42;6.00;35.50
2639;DHT22;1329;51.384;7.122;2022-11-14T07:08:09;5.90;35.50
2639;DHT22;1329;51.384;7.122;2022-11-14T07:10:36;6.00;35.60
2639;DHT22;1329;51.384;7.122;2022-11-14T07:13:04;5.90;35.40
2639;DHT22;1329;51.384;7.122;2022-11-14T07:15:31;5.90;36.50
2639;DHT22;1329;51.384;7.122;2022-11-14T07:17:58;5.90;35.80
2639;DHT22;1329;51.384;7.122;2022-11-14T07:20:25;5.90;36.10
2639;DHT22;1329;51.384;7.122;2022-11-14T07:22:51;5.90;36.20
2639;DHT22;1329;51.384;7.122;2022-11-14T07:25:18;5.90;36.40
2639;DHT22;1329;51.384;7.122;2022-11-14T07:27:47;6.00;36.60
2639;DHT22;1329;51.384;7.122;2022-11-14T07:30:15;5.90;36.50
2639;DHT22;1329;51.384;7.122;2022-11-14T07:32:42;5.90;37.60
2639;DHT22;1329;51.384;7.122;2022-11-14T07:35:09;5.90;36.50
2639;DHT22;1329;51.384;7.122;2022-11-14T07:37:36;6.00;36.90
2639;DHT22;1329;51.384;7.122;2022-11-14T07:40:03;6.00;37.00
2639;DHT22;1329;51.384;7.122;2022-11-14T07:42:31;6.00;38.00
2639;DHT22;1329;51.384;7.122;2022-11-14T07:44:57;6.00;38.30
2639;DHT22;1329;51.384;7.122;2022-11-14T07:47:26;6.00;38.60
2639;DHT22;1329;51.384;7.122;2022-11-14T07:49:52;6.00;40.00
2639;DHT22;1329;51.384;7.122;2022-11-14T07:52:19;6.00;39.30
2639;DHT22;1329;51.384;7.122;2022-11-14T07:54:46;6.00;39.40
2639;DHT22;1329;51.384;7.122;2022-11-14T07:57:13;6.00;39.70
2639;DHT22;1329;51.384;7.122;2022-11-14T07:59:40;6.10;40.10
2639;DHT22;1329;51.384;7.122;2022-11-14T08:02:10;6.10;40.40
2639;DHT22;1329;51.384;7.122;2022-11-14T08:04:39;6.20;42.40
2639;DHT22;1329;51.384;7.122;2022-11-14T08:07:06;6.10;42.20
2639;DHT22;1329;51.384;7.122;2022-11-14T08:09:33;6.10;41.60
2639;DHT22;1329;51.384;7.122;2022-11-14T08:12:00;6.10;42.40
2639;DHT22;1329;51.384;7.122;2022-11-14T08:14:27;6.20;43.20
2639;DHT22;1329;51.384;7.122;2022-11-14T08:16:54;6.20;43.80
2639;DHT22;1329;51.384;7.122;2022-11-14T08:19:20;6.20;44.50
2639;DHT22;1329;51.384;7.122;2022-11-14T08:21:49;6.20;45.10
2639;DHT22;1329;51.384;7.122;2022-11-14T08:24:15;6.30;46.40
2639;DHT22;1329;51.384;7.122;2022-11-14T08:26:43;6.30;45.70
2639;DHT22;1329;51.384;7.122;2022-11-14T08:29:10;6.30;46.40
2639;DHT22;1329;51.384;7.122;2022-11-14T08:31:38;6.40;47.20
2639;DHT22;1329;51.384;7.122;2022-11-14T08:34:05;6.40;48.30
2639;DHT22;1329;51.384;7.122;2022-11-14T08:36:32;6.40;49.70
2639;DHT22;1329;51.384;7.122;2022-11-14T08:39:00;6.50;51.90
2639;DHT22;1329;51.384;7.122;2022-11-14T08:41:27;6.50;56.60
2639;DHT22;1329;51.384;7.122;2022-11-14T08:43:54;6.60;59.10
2639;DHT22;1329;51.384;7.122;2022-11-14T08:46:20;6.70;62.80
2639;DHT22;1329;51.384;7.122;2022-11-14T08:48:47;6.80;65.30
2639;DHT22;1329;51.384;7.122;2022-11-14T08:51:14;6.90;66.50
2639;DHT22;1329;51.384;7.122;2022-11-14T08:53:41;7.00;67.30
2639;DHT22;1329;51.384;7.122;2022-11-14T08:56:09;7.10;67.30
2639;DHT22;1329;51.384;7.122;2022-11-14T08:58:36;7.20;68.70
2639;DHT22;1329;51.384;7.122;2022-11-14T09:01:05;7.30;67.80
2639;DHT22;1329;51.384;7.122;2022-11-14T09:03:33;7.40;69.30
2639;DHT22;1329;51.384;7.122;2022-11-14T09:06:00;7.50;69.70
2639;DHT22;1329;51.384;7.122;2022-11-14T09:08:28;7.60;70.80
2639;DHT22;1329;51.384;7.122;2022-11-14T09:10:55;7.70;71.30
2639;DHT22;1329;51.384;7.122;2022-11-14T09:13:27;7.80;71.90
2639;DHT22;1329;51.384;7.122;2022-11-14T09:15:53;7.90;71.90
2639;DHT22;1329;51.384;7.122;2022-11-14T09:18:20;8.00;70.60
2639;DHT22;1329;51.384;7.122;2022-11-14T09:20:47;8.10;70.60
2639;DHT22;1329;51.384;7.122;2022-11-14T09:23:14;8.20;70.80
2639;DHT22;1329;51.384;7.122;2022-11-14T09:25:41;8.30;70.90
2639;DHT22;1329;51.384;7.122;2022-11-14T09:28:08;8.40;71.20
2639;DHT22;1329;51.384;7.122;2022-11-14T09:30:36;8.50;70.80
2639;DHT22;1329;51.384;7.122;2022-11-14T09:33:05;8.60;69.90
2639;DHT22;1329;51.384;7.122;2022-11-14T09:35:33;8.70;69.80
2639;DHT22;1329;51.384;7.122;2022-11-14T09:38:01;8.80;68.80
2639;DHT22;1329;51.384;7.122;2022-11-14T09:40:38;8.90;67.10
2639;DHT22;1329;51.384;7.122;2022-11-14T09:43:22;9.00;64.20
2639;DHT22;1329;51.384;7.122;2022-11-14T09:46:01;9.10;63.50
2639;DHT22;1329;51.384;7.122;2022-11-14T09:48:29;9.20;62.60
2639;DHT22;1329;51.384;7.122;2022-11-14T09:51:04;9.30;62.00
2639;DHT22;1329;51.384;7.122;2022-11-14T09:53:35;9.30;60.80
2639;DHT22;1329;51.384;7.122;2022-11-14T09:56:10;9.40;60.60
2639;DHT22;1329;51.384;7.122;2022-11-14T09:58:39;9.40;57.90
2639;DHT22;1329;51.384;7.122;2022-11-14T10:01:12;9.50;57.30
2639;DHT22;1329;51.384;7.122;2022-11-14T10:03:48;9.50;55.00
2639;DHT22;1329;51.384;7.122;2022-11-14T10:06:25;9.60;54.70
2639;DHT22;1329;51.384;7.122;2022-11-14T10:09:05;9.60;53.40
2639;DHT22;1329;51.384;7.122;2022-11-14T10:11:54;9.60;52.60
2639;DHT22;1329;51.384;7.122;2022-11-14T10:14:56;9.60;53.10
2639;DHT22;1329;51.384;7.122;2022-11-14T10:17:55;9.70;50.20
2639;DHT22;1329;51.384;7.122;2022-11-14T10:20:32;9.70;49.90
2639;DHT22;1329;51.384;7.122;2022-11-14T10:23:15;9.70;51.30
2639;DHT22;1329;51.384;7.122;2022-11-14T10:25:54;9.80;51.00
2639;DHT22;1329;51.384;7.122;2022-11-14T10:28:32;9.80;52.10
2639;DHT22;1329;51.384;7.122;2022-11-14T10:31:17;9.80;52.60
2639;DHT22;1329;51.384;7.122;2022-11-14T10:33:55;9.90;53.00
2639;DHT22;1329;51.384;7.122;2022-11-14T10:36:37;9.90;53.80
2639;DHT22;1329;51.384;7.122;2022-11-14T10:39:16;9.90;52.00
2639;DHT22;1329;51.384;7.122;2022-11-14T10:41:46;10.00;51.30
2639;DHT22;1329;51.384;7.122;2022-11-14T10:44:17;10.00;51.10
2639;DHT22;1329;51.384;7.122;2022-11-14T10:46:50;10.10;50.10
2639;DHT22;1329;51.384;7.122;2022-11-14T10:49:22;10.00;49.90
2639;DHT22;1329;51.384;7.122;2022-11-14T10:51:53;10.10;50.10
2639;DHT22;1329;51.384;7.122;2022-11-14T10:54:24;10.10;51.00
2639;DHT22;1329;51.384;7.122;2022-11-14T10:56:57;10.10;49.70
2639;DHT22;1329;51.384;7.122;2022-11-14T10:59:24;10.20;50.60
2639;DHT22;1329;51.384;7.122;2022-11-14T11:01:53;10.20;50.10
2639;DHT22;1329;51.384;7.122;2022-11-14T11:04:25;10.20;49.10
2639;DHT22;1329;51.384;7.122;2022-11-14T11:06:54;10.20;47.70
2639;DHT22;1329;51.384;7.122;2022-11-14T11:09:24;10.30;49.20
2639;DHT22;1329;51.384;7.122;2022-11-14T11:12:15;10.30;48.30
2639;DHT22;1329;51.384;7.122;2022-11-14T11:14:44;10.30;47.80
2639;DHT22;1329;51.384;7.122;2022-11-14T11:17:20;10.40;49.40
2639;DHT22;1329;51.384;7.122;2022-11-14T11:19:50;10.40;47.20
2639;DHT22;1329;51.384;7.122;2022-11-14T11:22:27;10.50;48.20
2639;DHT22;1329;51.384;7.122;2022-11-14T11:24:55;10.50;46.50
2639;DHT22;1329;51.384;7.122;2022-11-14T11:27:23;10.60;49.40
2639;DHT22;1329;51.384;7.122;2022-11-14T11:30:07;10.60;48.30
2639;DHT22;1329;51.384;7.122;2022-11-14T11:32:43;10.70;44.00
2639;DHT22;1329;51.384;7.122;2022-11-14T11:35:14;10.70;46.50
2639;DHT22;1329;51.384;7.122;2022-11-14T11:37:45;10.70;44.70
2639;DHT22;1329;51.384;7.122;2022-11-14T11:40:21;10.80;43.70
2639;DHT22;1329;51.384;7.122;2022-11-14T11:42:55;10.80;43.30
2639;DHT22;1329;51.384;7.122;2022-11-14T11:45:25;10.90;42.00
2639;DHT22;1329;51.384;7.122;2022-11-14T11:47:57;10.90;43.10
2639;DHT22;1329;51.384;7.122;2022-11-14T11:50:29;10.90;40.70
2639;DHT22;1329;51.384;7.122;2022-11-14T11:53:04;10.90;39.30
2639;DHT22;1329;51.384;7.122;2022-11-14T11:55:40;10.90;37.60
2639;DHT22;1329;51.384;7.122;2022-11-14T11:58:12;11.00;38.10
2639;DHT22;1329;51.384;7.122;2022-11-14T12:00:44;11.00;37.30
2639;DHT22;1329;51.384;7.122;2022-11-14T12:03:13;10.90;38.80
2639;DHT22;1329;51.384;7.122;2022-11-14T12:05:48;10.90;38.20
2639;DHT22;1329;51.384;7.122;2022-11-14T12:08:23;11.00;38.20
2639;DHT22;1329;51.384;7.122;2022-11-14T12:10:56;11.00;38.50
2639;DHT22;1329;51.384;7.122;2022-11-14T12:13:49;11.00;39.80
2639;DHT22;1329;51.384;7.122;2022-11-14T12:16:39;11.00;36.50
2639;DHT22;1329;51.384;7.122;2022-11-14T12:19:36;11.10;37.00
2639;DHT22;1329;51.384;7.122;2022-11-14T12:25:54;11.10;36.10
2639;DHT22;1329;51.384;7.122;2022-11-14T12:28:44;11.20;38.00
2639;DHT22;1329;51.384;7.122;2022-11-14T12:31:25;11.20;35.80
2639;DHT22;1329;51.384;7.122;2022-11-14T12:33:57;11.20;38.30
2639;DHT22;1329;51.384;7.122;2022-11-14T12:36:28;11.20;37.70
2639;DHT22;1329;51.384;7.122;2022-11-14T12:38:57;11.20;37.40
2639;DHT22;1329;51.384;7.122;2022-11-14T12:41:27;11.20;37.90
2639;DHT22;1329;51.384;7.122;2022-11-14T12:44:17;11.30;37.60
2639;DHT22;1329;51.384;7.122;2022-11-14T12:47:10;11.30;34.60
2639;DHT22;1329;51.384;7.122;2022-11-14T12:49:57;11.30;35.20
2639;DHT22;1329;51.384;7.122;2022-11-14T12:52:46;11.40;35.80
2639;DHT22;1329;51.384;7.122;2022-11-14T12:55:53;11.40;35.80
2639;DHT22;1329;51.384;7.122;2022-11-14T12:58:41;11.40;35.60
2639;DHT22;1329;51.384;7.122;2022-11-14T13:01:26;11.40;34.60
2639;DHT22;1329;51.384;7.122;2022-11-14T13:04:14;11.40;35.30
2639;DHT22;1329;51.384;7.122;2022-11-14T13:06:52;11.50;35.80
2639;DHT22;1329;51.384;7.122;2022-11-14T13:09:52;11.50;37.00
2639;DHT22;1329;51.384;7.122;2022-11-14T13:12:31;11.50;35.10
2639;DHT22;1329;51.384;7.122;2022-11-14T13:15:27;11.50;36.20
2639;DHT22;1329;51.384;7.122;2022-11-14T13:18:15;11.50;35.20
2639;DHT22;1329;51.384;7.122;2022-11-14T13:21:05;11.50;36.80
2639;DHT22;1329;51.384;7.122;2022-11-14T13:24:00;11.60;37.00
2639;DHT22;1329;51.384;7.122;2022-11-14T13:26:38;11.60;37.60
2639;DHT22;1329;51.384;7.122;2022-11-14T13:29:07;11.60;36.30
2639;DHT22;1329;51.384;7.122;2022-11-14T13:31:48;11.60;37.50
2639;DHT22;1329;51.384;7.122;2022-11-14T13:34:33;11.60;35.40
2639;DHT22;1329;51.384;7.122;2022-11-14T13:37:13;11.70;33.20
2639;DHT22;1329;51.384;7.122;2022-11-14T13:39:56;11.60;33.50
2639;DHT22;1329;51.384;7.122;2022-11-14T13:42:34;11.70;33.60
2639;DHT22;1329;51.384;7.122;2022-11-14T13:45:43;11.60;32.70
2639;DHT22;1329;51.384;7.122;2022-11-14T13:51:28;11.70;33.10
2639;DHT22;1329;51.384;7.122;2022-11-14T13:53:55;11.60;34.50
2639;DHT22;1329;51.384;7.122;2022-11-14T13:56:29;11.60;35.10
2639;DHT22;1329;51.384;7.122;2022-11-14T13:59:35;11.60;33.90
2639;DHT22;1329;51.384;7.122;2022-11-14T14:02:42;11.60;31.00
2639;DHT22;1329;51.384;7.122;2022-11-14T14:05:31;11.60;32.10
2639;DHT22;1329;51.384;7.122;2022-11-14T14:08:14;11.60;32.50
2639;DHT22;1329;51.384;7.122;2022-11-14T14:10:56;11.60;32.10
2639;DHT22;1329;51.384;7.122;2022-11-14T14:13:40;11.60;33.00
2639;DHT22;1329;51.384;7.122;2022-11-14T14:16:17;11.60;32.40
2639;DHT22;1329;51.384;7.122;2022-11-14T14:18:57;11.60;32.20
2639;DHT22;1329;51.384;7.122;2022-11-14T14:21:36;11.60;31.10
2639;DHT22;1329;51.384;7.122;2022-11-14T14:24:17;11.60;31.90
2639;DHT22;1329;51.384;7.122;2022-11-14T14:27:01;11.60;31.70
2639;DHT22;1329;51.384;7.122;2022-11-14T14:29:38;11.60;32.10
2639;DHT22;1329;51.384;7.122;2022-11-14T14:32:11;11.60;32.50
2639;DHT22;1329;51.384;7.122;2022-11-14T14:34:38;11.60;32.30
2639;DHT22;1329;51.384;7.122;2022-11-14T14:37:15;11.60;32.70
2639;DHT22;1329;51.384;7.122;2022-11-14T14:39:56;11.60;30.60
2639;DHT22;1329;51.384;7.122;2022-11-14T14:42:24;11.60;30.60
2639;DHT22;1329;51.384;7.122;2022-11-14T14:44:52;11.50;31.80
2639;DHT22;1329;51.384;7.122;2022-11-14T14:47:32;11.50;31.70
2639;DHT22;1329;51.384;7.122;2022-11-14T14:50:05;11.50;30.00
2639;DHT22;1329;51.384;7.122;2022-11-14T14:52:39;11.50;30.50
2639;DHT22;1329;51.384;7.122;2022-11-14T14:55:18;11.50;31.10
2639;DHT22;1329;51.384;7.122;2022-11-14T14:57:46;11.50;29.70
2639;DHT22;1329;51.384;7.122;2022-11-14T15:00:18;11.50;31.10
2639;DHT22;1329;51.384;7.122;2022-11-14T15:02:48;11.50;29.70
2639;DHT22;1329;51.384;7.122;2022-11-14T15:05:21;11.50;30.80
2639;DHT22;1329;51.384;7.122;2022-11-14T15:07:49;11.40;29.30
2639;DHT22;1329;51.384;7.122;2022-11-14T15:10:22;11.40;30.00
2639;DHT22;1329;51.384;7.122;2022-11-14T15:12:54;11.40;29.30
2639;DHT22;1329;51.384;7.122;2022-11-14T15:15:22;11.40;29.70
2639;DHT22;1329;51.384;7.122;2022-11-14T15:17:52;11.40;29.80
2639;DHT22;1329;51.384;7.122;2022-11-14T15:20:21;11.40;29.30
2639;DHT22;1329;51.384;7.122;2022-11-14T15:23:03;11.30;29.60
2639;DHT22;1329;51.384;7.122;2022-11-14T15:25:32;11.30;28.80
2639;DHT22;1329;51.384;7.122;2022-11-14T15:27:59;11.30;29.50
2639;DHT22;1329;51.384;7.122;2022-11-14T15:30:28;11.30;29.90
2639;DHT22;1329;51.384;7.122;2022-11-14T15:32:57;11.30;29.70
2639;DHT22;1329;51.384;7.122;2022-11-14T15:35:32;11.30;29.80
2639;DHT22;1329;51.384;7.122;2022-11-14T15:38:05;11.30;28.80
2639;DHT22;1329;51.384;7.122;2022-11-14T15:40:36;11.30;28.90
2639;DHT22;1329;51.384;7.122;2022-11-14T15:43:35;11.30;29.10
2639;DHT22;1329;51.384;7.122;2022-11-14T15:46:03;11.20;28.70
2639;DHT22;1329;51.384;7.122;2022-11-14T15:48:30;11.20;29.70
2639;DHT22;1329;51.384;7.122;2022-11-14T15:50:57;11.20;29.90
2639;DHT22;1329;51.384;7.122;2022-11-14T15:53:26;11.20;30.00
2639;DHT22;1329;51.384;7.122;2022-11-14T15:55:55;11.20;29.60
2639;DHT22;1329;51.384;7.122;2022-11-14T15:58:23;11.20;29.80
2639;DHT22;1329;51.384;7.122;2022-11-14T16:00:51;11.20;30.10
2639;DHT22;1329;51.384;7.122;2022-11-14T16:03:20;11.20;30.00
2639;DHT22;1329;51.384;7.122;2022-11-14T16:05:48;11.20;30.10
2639;DHT22;1329;51.384;7.122;2022-11-14T16:08:15;11.20;30.40
2639;DHT22;1329;51.384;7.122;2022-11-14T16:10:41;11.20;30.70
2639;DHT22;1329;51.384;7.122;2022-11-14T16:13:09;11.20;31.50
2639;DHT22;1329;51.384;7.122;2022-11-14T16:15:36;11.20;30.60
2639;DHT22;1329;51.384;7.122;2022-11-14T16:18:05;11.10;30.90
2639;DHT22;1329;51.384;7.122;2022-11-14T16:20:32;11.10;30.80
2639;DHT22;1329;51.384;7.122;2022-11-14T16:23:02;11.10;31.10
2639;DHT22;1329;51.384;7.122;2022-11-14T16:25:30;11.10;31.00
2639;DHT22;1329;51.384;7.122;2022-11-14T16:27:57;11.20;31.30
2639;DHT22;1329;51.384;7.122;2022-11-14T16:30:25;11.10;31.70
2639;DHT22;1329;51.384;7.122;2022-11-14T16:32:52;11.10;31.50
2639;DHT22;1329;51.384;7.122;2022-11-14T16:35:20;11.10;31.70
2639;DHT22;1329;51.384;7.122;2022-11-14T16:37:49;11.10;31.50
2639;DHT22;1329;51.384;7.122;2022-11-14T16:40:17;11.10;31.50
2639;DHT22;1329;51.384;7.122;2022-11-14T16:42:47;11.10;31.40
2639;DHT22;1329;51.384;7.122;2022-11-14T16:45:14;11.10;31.80